Time;durP1;ratioP1;P1;durP2;ratioP2;P2;SDS_P1;SDS_P2;PMS_P1;PMS_P2;Temp;Humidity;BMP_temperature;BMP_pressure;BME280_temperature;BME280_humidity;BME280_pressure;Samples;Min_cycle;Max_cycle;Signal;HPM_P1;HPM_P2
2022/09/15 00:00:21;;;;;;;8.82;5.28;;;13.20;99.90;;;;;;4993740;28;20039;-61
2022/09/15 00:02:47;;;;;;;11.35;5.95;;;13.20;99.90;;;;;;4985375;28;20026;-61
2022/09/15 00:05:13;;;;;;;12.98;5.75;;;13.10;99.90;;;;;;4993270;28;20387;-62
2022/09/15 00:07:39;;;;;;;10.80;6.03;;;13.00;99.90;;;;;;4991319;28;20065;-62
2022/09/15 00:10:06;;;;;;;7.65;5.95;;;13.10;99.90;;;;;;4988347;28;20066;-62
2022/09/15 00:12:32;;;;;;;13.15;7.15;;;13.00;99.90;;;;;;4990485;28;20026;-61
2022/09/15 00:14:58;;;;;;;10.07;5.90;;;13.00;99.90;;;;;;4993652;28;20474;-61
2022/09/15 00:17:25;;;;;;;14.18;6.30;;;13.00;99.90;;;;;;4991605;28;20114;-62
2022/09/15 00:19:51;;;;;;;10.95;6.47;;;13.00;99.90;;;;;;4995983;28;20046;-63
2022/09/15 00:22:18;;;;;;;11.70;5.75;;;13.00;99.90;;;;;;4995805;28;20026;-62
2022/09/15 00:24:48;;;;;;;14.57;6.82;;;13.00;99.90;;;;;;4984457;28;20401;-63
2022/09/15 00:27:16;;;;;;;11.90;6.03;;;13.00;99.90;;;;;;4989294;28;20038;-64
2022/09/15 00:29:41;;;;;;;10.93;6.40;;;13.00;99.90;;;;;;4991583;28;20022;-62
2022/09/15 00:32:08;;;;;;;12.30;6.38;;;13.00;99.90;;;;;;4993237;28;20489;-61
2022/09/15 00:34:34;;;;;;;12.32;7.00;;;13.00;99.90;;;;;;4991630;28;20583;-61
2022/09/15 00:36:59;;;;;;;9.27;6.15;;;12.90;99.90;;;;;;4992851;28;20033;-62
2022/09/15 00:39:25;;;;;;;14.68;6.72;;;12.90;99.90;;;;;;4991167;28;20022;-63
2022/09/15 00:41:51;;;;;;;16.02;6.63;;;12.90;99.90;;;;;;4989707;28;20033;-62
2022/09/15 00:44:35;;;;;;;11.77;6.82;;;12.80;99.90;;;;;;4991364;28;20498;-61
2022/09/15 00:47:03;;;;;;;15.48;6.82;;;12.80;99.90;;;;;;4988202;28;20545;-61
2022/09/15 00:49:33;;;;;;;11.43;6.88;;;12.80;99.90;;;;;;4989681;28;20058;-61
2022/09/15 00:52:06;;;;;;;9.63;6.28;;;12.80;99.90;;;;;;4992427;28;20097;-61
2022/09/15 00:54:48;;;;;;;11.70;6.07;;;12.70;99.90;;;;;;4989662;28;20076;-61
2022/09/15 00:57:32;;;;;;;;;;;12.70;99.90;;;;;;4988004;28;20052;-62
2022/09/15 01:00:02;;;;;;;9.75;6.72;;;12.70;99.90;;;;;;4982556;28;19916;-60
2022/09/15 01:02:31;;;;;;;14.77;6.72;;;12.70;99.90;;;;;;4987773;28;20038;-60
2022/09/15 01:04:59;;;;;;;10.60;5.75;;;12.70;99.90;;;;;;4992627;28;20041;-61
2022/09/15 01:07:47;;;;;;;11.90;6.43;;;12.70;99.90;;;;;;4990049;28;20056;-62
2022/09/15 01:10:34;;;;;;;12.98;7.00;;;12.70;99.90;;;;;;4987645;28;20047;-62
2022/09/15 01:13:09;;;;;;;13.02;6.07;;;12.70;99.90;;;;;;4989494;28;20130;-62
2022/09/15 01:16:03;;;;;;;14.35;6.18;;;12.70;99.90;;;;;;4984223;28;20109;-61
2022/09/15 01:18:31;;;;;;;13.52;7.50;;;12.70;99.90;;;;;;4982136;28;20430;-62
2022/09/15 01:21:32;;;;;;;11.65;6.90;;;12.70;99.90;;;;;;4992098;28;20080;-62
2022/09/15 01:24:33;;;;;;;13.38;7.30;;;12.60;99.90;;;;;;4997837;28;20042;-62
2022/09/15 01:27:35;;;;;;;13.50;7.10;;;12.60;99.90;;;;;;4990315;28;20046;-62
2022/09/15 01:30:19;;;;;;;13.15;6.55;;;12.60;99.90;;;;;;4988149;28;20133;-62
2022/09/15 01:33:04;;;;;;;15.23;7.15;;;12.60;99.90;;;;;;4981668;28;20080;-62
2022/09/15 01:36:02;;;;;;;13.20;7.80;;;12.50;99.90;;;;;;4988236;28;20022;-61
2022/09/15 01:38:34;;;;;;;11.40;6.78;;;12.50;99.90;;;;;;4982940;28;20084;-61
2022/09/15 01:41:27;;;;;;;12.82;7.07;;;12.50;99.90;;;;;;4991294;28;20031;-62
2022/09/15 01:44:11;;;;;;;11.23;7.10;;;12.50;99.90;;;;;;4987312;28;20050;-63
2022/09/15 01:46:46;;;;;;;12.65;8.48;;;12.50;99.90;;;;;;4980780;28;20448;-61
2022/09/15 01:49:16;;;;;;;14.57;7.47;;;12.50;99.90;;;;;;4990585;28;20030;-61
2022/09/15 01:51:43;;;;;;;13.40;7.03;;;12.40;99.90;;;;;;4984786;28;20034;-62
2022/09/15 01:54:10;;;;;;;11.32;7.82;;;12.40;99.90;;;;;;4991246;28;20031;-62
2022/09/15 01:56:40;;;;;;;11.02;6.97;;;12.40;99.90;;;;;;4985856;28;20030;-60
2022/09/15 01:59:08;;;;;;;15.73;7.43;;;12.50;99.90;;;;;;4990644;28;20030;-62
2022/09/15 02:01:48;;;;;;;10.55;7.22;;;12.50;99.90;;;;;;4989396;28;20054;-63
2022/09/15 02:04:58;;;;;;;11.98;7.85;;;12.50;99.90;;;;;;4985244;28;20023;-62
2022/09/15 02:07:43;;;;;;;11.82;6.78;;;12.60;99.90;;;;;;4987560;28;20068;-61
2022/09/15 02:10:28;;;;;;;9.20;6.32;;;12.70;99.90;;;;;;4988456;28;20042;-62
2022/09/15 02:13:21;;;;;;;14.23;7.43;;;12.70;99.90;;;;;;4990598;28;20122;-61
2022/09/15 02:15:56;;;;;;;9.57;6.80;;;12.80;99.90;;;;;;4988644;28;20176;-61
2022/09/15 02:18:45;;;;;;;11.25;7.53;;;12.80;99.90;;;;;;4990082;28;20026;-62
2022/09/15 02:21:20;;;;;;;13.00;8.57;;;12.90;99.90;;;;;;4980098;28;20378;-62
2022/09/15 02:23:53;;;;;;;19.13;7.20;;;12.90;99.90;;;;;;4983701;28;20029;-62
2022/09/15 02:26:26;;;;;;;10.90;6.45;;;12.90;99.90;;;;;;4989039;28;21851;-63
2022/09/15 02:28:55;;;;;;;12.32;6.97;;;12.90;99.90;;;;;;4990362;28;20035;-62
2022/09/15 02:31:24;;;;;;;14.30;7.45;;;12.90;99.90;;;;;;4986879;28;20092;-61
2022/09/15 02:33:59;;;;;;;10.02;6.60;;;12.90;99.90;;;;;;4980969;28;20026;-61
2022/09/15 02:36:27;;;;;;;12.20;7.03;;;12.90;99.90;;;;;;4982778;28;20470;-61
2022/09/15 02:39:01;;;;;;;9.68;7.25;;;12.90;99.90;;;;;;4989766;28;20053;-62
2022/09/15 02:41:27;;;;;;;9.57;6.57;;;12.80;99.90;;;;;;4987731;28;20036;-61
2022/09/15 02:43:53;;;;;;;11.55;6.57;;;12.80;99.90;;;;;;4988131;28;20129;-63
2022/09/15 02:46:21;;;;;;;11.90;7.40;;;12.80;99.90;;;;;;4984065;28;20038;-61
2022/09/15 02:48:47;;;;;;;12.70;7.20;;;12.80;99.90;;;;;;4988609;28;20037;-62
2022/09/15 02:51:13;;;;;;;13.10;6.95;;;12.70;99.90;;;;;;4990478;28;20043;-61
2022/09/15 02:53:39;;;;;;;12.00;6.57;;;12.70;99.90;;;;;;4981661;28;20117;-62
2022/09/15 02:56:05;;;;;;;9.30;6.60;;;12.70;99.90;;;;;;4989865;28;20033;-62
2022/09/15 02:58:34;;;;;;;13.38;6.53;;;12.70;99.90;;;;;;4988819;28;20030;-62
2022/09/15 03:01:03;;;;;;;14.45;6.88;;;12.70;99.90;;;;;;4989279;28;20109;-61
2022/09/15 03:03:30;;;;;;;9.75;6.30;;;12.70;99.90;;;;;;4987532;28;20057;-62
2022/09/15 03:06:15;;;;;;;9.50;6.30;;;12.70;99.90;;;;;;4990217;28;20134;-62
2022/09/15 03:08:43;;;;;;;10.32;6.13;;;12.70;99.90;;;;;;4980478;28;20053;-62
2022/09/15 03:11:09;;;;;;;9.77;6.60;;;12.70;99.90;;;;;;4989629;28;20034;-62
2022/09/15 03:13:35;;;;;;;8.98;6.35;;;12.80;99.90;;;;;;4986870;28;20022;-62
2022/09/15 03:16:10;;;;;;;10.40;6.05;;;12.80;99.90;;;;;;4987726;28;20094;-62
2022/09/15 03:18:37;;;;;;;8.73;6.22;;;12.80;99.90;;;;;;4987745;28;20393;-61
2022/09/15 03:21:04;;;;;;;10.10;6.88;;;12.80;99.90;;;;;;4985221;28;20503;-61
2022/09/15 03:23:31;;;;;;;9.15;6.38;;;12.80;99.90;;;;;;4987139;28;20031;-63
2022/09/15 03:26:00;;;;;;;9.63;6.20;;;12.90;99.90;;;;;;4983638;28;20033;-62
2022/09/15 03:28:26;;;;;;;8.43;6.68;;;12.90;99.90;;;;;;4987942;28;20022;-62
2022/09/15 03:30:53;;;;;;;9.15;6.22;;;12.90;99.90;;;;;;4990216;28;20038;-62
2022/09/15 03:33:20;;;;;;;12.35;6.47;;;12.90;99.90;;;;;;4988912;28;20466;-61
2022/09/15 03:35:46;;;;;;;8.38;5.65;;;12.90;99.90;;;;;;4988359;28;20030;-61
2022/09/15 03:38:13;;;;;;;9.70;6.70;;;12.90;99.90;;;;;;4988907;28;20397;-62
2022/09/15 03:40:41;;;;;;;11.55;6.43;;;12.90;99.90;;;;;;4987591;28;20026;-62
2022/09/15 03:43:06;;;;;;;12.20;6.63;;;12.90;99.90;;;;;;4997909;23;20194;-58
2022/09/15 03:45:32;;;;;;;7.93;5.97;;;13.00;99.90;;;;;;4986697;28;20077;-59
2022/09/15 03:47:58;;;;;;;9.90;6.40;;;13.00;99.90;;;;;;4988995;28;20118;-57
2022/09/15 03:50:23;;;;;;;10.93;6.00;;;13.00;99.90;;;;;;4989604;28;20413;-58
2022/09/15 03:52:49;;;;;;;11.98;6.80;;;13.00;99.90;;;;;;4986896;28;20121;-58
2022/09/15 03:55:15;;;;;;;14.10;6.15;;;13.00;99.90;;;;;;4989578;28;20026;-58
2022/09/15 03:57:41;;;;;;;7.93;5.68;;;13.00;99.90;;;;;;4986454;28;20474;-58
2022/09/15 04:00:07;;;;;;;8.52;6.38;;;13.00;99.90;;;;;;4989674;28;20018;-58
2022/09/15 04:02:33;;;;;;;11.98;6.75;;;13.00;99.90;;;;;;4985599;28;20019;-58
2022/09/15 04:04:59;;;;;;;9.90;5.90;;;13.00;99.90;;;;;;4990134;28;20161;-58
2022/09/15 04:07:25;;;;;;;6.25;5.65;;;13.00;99.90;;;;;;4987644;28;20477;-58
2022/09/15 04:09:51;;;;;;;9.13;6.10;;;13.10;99.90;;;;;;4981549;28;20023;-58
2022/09/15 04:12:17;;;;;;;9.40;5.55;;;13.10;99.90;;;;;;4987250;28;20041;-58
2022/09/15 04:14:42;;;;;;;8.95;6.55;;;13.10;99.90;;;;;;4987787;28;20478;-58
2022/09/15 04:17:09;;;;;;;9.73;6.10;;;13.10;99.90;;;;;;4988709;28;20030;-58
2022/09/15 04:19:35;;;;;;;14.00;7.18;;;13.10;99.90;;;;;;4985260;28;20019;-58
2022/09/15 04:22:01;;;;;;;10.90;6.78;;;13.10;99.90;;;;;;4989773;28;20030;-58
2022/09/15 04:24:27;;;;;;;7.80;6.22;;;13.10;99.90;;;;;;4987644;28;20445;-59
2022/09/15 04:26:53;;;;;;;12.10;6.07;;;13.10;99.90;;;;;;4988082;28;20132;-57
2022/09/15 04:29:19;;;;;;;10.57;6.47;;;13.10;99.90;;;;;;4988707;28;20026;-58
2022/09/15 04:31:45;;;;;;;11.15;6.10;;;13.10;99.90;;;;;;4987212;28;20562;-58
2022/09/15 04:34:11;;;;;;;8.07;6.28;;;13.10;99.90;;;;;;4989417;28;20030;-58
2022/09/15 04:36:37;;;;;;;8.40;7.25;;;13.10;99.90;;;;;;4987956;28;20048;-58
2022/09/15 04:39:04;;;;;;;10.30;7.03;;;13.10;99.90;;;;;;4991831;28;20018;-58
2022/09/15 04:41:30;;;;;;;11.40;6.55;;;13.10;99.90;;;;;;4990779;28;20081;-58
2022/09/15 04:43:55;;;;;;;10.95;6.20;;;13.10;99.90;;;;;;4992254;28;20042;-58
2022/09/15 04:46:21;;;;;;;8.73;6.45;;;13.10;99.90;;;;;;4991205;28;20069;-58
2022/09/15 04:48:47;;;;;;;10.75;6.65;;;13.10;99.90;;;;;;4989077;28;20474;-58
2022/09/15 04:51:18;;;;;;;8.60;6.63;;;13.10;99.90;;;;;;4992635;28;20085;-58
2022/09/15 04:53:44;;;;;;;9.30;7.10;;;13.10;99.90;;;;;;4989904;28;20057;-58
2022/09/15 04:56:13;;;;;;;11.20;7.18;;;13.00;99.90;;;;;;4992164;28;20089;-58
2022/09/15 04:58:44;;;;;;;11.07;6.95;;;13.00;99.90;;;;;;4991093;28;20496;-58
2022/09/15 05:01:13;;;;;;;13.57;6.72;;;13.00;99.90;;;;;;4989155;28;20037;-58
2022/09/15 05:03:40;;;;;;;12.75;7.35;;;13.00;99.90;;;;;;4989811;28;20102;-58
2022/09/15 05:06:08;;;;;;;10.30;7.07;;;13.00;99.90;;;;;;4991973;28;20023;-58
2022/09/15 05:08:34;;;;;;;10.85;7.05;;;13.00;99.90;;;;;;4990397;28;20486;-58
2022/09/15 05:11:02;;;;;;;9.40;7.00;;;13.10;99.90;;;;;;4991809;28;20459;-59
2022/09/15 05:13:28;;;;;;;11.32;7.40;;;13.00;99.90;;;;;;4983829;28;20033;-58
2022/09/15 05:15:54;;;;;;;12.10;6.53;;;13.10;99.90;;;;;;4992225;28;20039;-58
2022/09/15 05:18:19;;;;;;;9.73;7.00;;;13.10;99.90;;;;;;4991958;28;20494;-58
2022/09/15 05:20:45;;;;;;;9.98;6.88;;;13.10;99.90;;;;;;4990483;28;20512;-58
2022/09/15 05:23:11;;;;;;;9.43;6.65;;;13.10;99.90;;;;;;4991402;28;20097;-58
2022/09/15 05:25:37;;;;;;;17.75;7.50;;;13.10;99.90;;;;;;4990194;28;20030;-58
2022/09/15 05:28:04;;;;;;;12.52;6.82;;;13.10;99.90;;;;;;4990971;28;20026;-58
2022/09/15 05:30:30;;;;;;;14.10;7.47;;;13.10;99.90;;;;;;4989918;28;20486;-58
2022/09/15 05:32:55;;;;;;;15.48;8.52;;;13.10;99.90;;;;;;4983716;28;20030;-58
2022/09/15 05:35:22;;;;;;;10.95;7.13;;;13.10;99.90;;;;;;4990986;28;20533;-58
2022/09/15 05:37:48;;;;;;;19.15;7.80;;;13.10;99.90;;;;;;4988337;28;20557;-59
2022/09/15 05:40:14;;;;;;;20.77;7.85;;;13.10;99.90;;;;;;4990701;28;20217;-58
2022/09/15 05:42:40;;;;;;;13.35;6.97;;;13.10;99.90;;;;;;4984137;28;20133;-59
2022/09/15 05:45:06;;;;;;;14.88;7.38;;;13.10;99.90;;;;;;4984843;28;20113;-59
2022/09/15 05:47:32;;;;;;;13.45;7.90;;;13.10;99.90;;;;;;4986635;28;20029;-59
2022/09/15 05:49:58;;;;;;;11.07;7.90;;;13.20;99.90;;;;;;4991246;28;20030;-59
2022/09/15 05:52:23;;;;;;;15.25;7.22;;;13.20;99.90;;;;;;4987787;28;20031;-59
2022/09/15 05:54:50;;;;;;;11.52;7.38;;;13.30;99.90;;;;;;4988280;28;20037;-59
2022/09/15 05:57:15;;;;;;;17.20;8.57;;;13.30;99.90;;;;;;4990739;28;20026;-59
2022/09/15 05:59:42;;;;;;;12.13;7.22;;;13.30;99.90;;;;;;4989417;28;20026;-59
2022/09/15 06:02:09;;;;;;;12.68;8.35;;;13.30;99.90;;;;;;4990198;28;20035;-59
2022/09/15 06:04:35;;;;;;;10.40;7.72;;;13.30;99.90;;;;;;4988286;28;20049;-59
2022/09/15 06:07:01;;;;;;;9.88;7.10;;;13.30;99.90;;;;;;4990129;28;20065;-59
2022/09/15 06:09:27;;;;;;;23.10;9.80;;;13.30;99.90;;;;;;4987086;28;20121;-59
2022/09/15 06:11:52;;;;;;;11.30;7.55;;;13.40;99.90;;;;;;4990084;28;20544;-59
2022/09/15 06:14:18;;;;;;;17.27;8.43;;;13.30;99.90;;;;;;4984205;28;20050;-59
2022/09/15 06:16:44;;;;;;;16.17;8.18;;;13.40;99.90;;;;;;4988957;28;20461;-59
2022/09/15 06:19:10;;;;;;;13.10;8.60;;;13.40;99.90;;;;;;4990479;28;20493;-59
2022/09/15 06:21:36;;;;;;;12.73;9.70;;;13.40;99.90;;;;;;4988970;28;20030;-59
2022/09/15 06:24:05;;;;;;;13.00;8.25;;;13.40;99.90;;;;;;4990305;28;20088;-59
2022/09/15 06:26:32;;;;;;;15.95;8.50;;;13.50;99.90;;;;;;4986956;28;20097;-59
2022/09/15 06:29:03;;;;;;;15.82;8.68;;;13.50;99.90;;;;;;4990501;28;20105;-59
2022/09/15 06:31:31;;;;;;;14.20;9.32;;;13.50;99.90;;;;;;4984315;28;20034;-58
2022/09/15 06:33:57;;;;;;;13.77;7.32;;;13.60;99.90;;;;;;4988834;28;20031;-59
2022/09/15 06:36:26;;;;;;;12.00;8.45;;;13.60;99.90;;;;;;4983816;28;20023;-58
2022/09/15 06:38:52;;;;;;;11.70;8.07;;;13.60;99.90;;;;;;4985352;28;20030;-59
2022/09/15 06:41:18;;;;;;;13.05;8.40;;;13.60;99.90;;;;;;4986263;28;20443;-60
2022/09/15 06:43:45;;;;;;;15.40;8.27;;;13.60;99.90;;;;;;4981517;28;20046;-59
2022/09/15 06:46:20;;;;;;;13.80;7.60;;;13.70;99.90;;;;;;4989617;28;20457;-57
2022/09/15 06:48:46;;;;;;;11.90;7.95;;;13.80;99.90;;;;;;4986432;28;20037;-57
2022/09/15 06:51:13;;;;;;;11.25;7.45;;;13.80;99.90;;;;;;5001442;28;20080;-58
2022/09/15 06:53:39;;;;;;;12.05;7.63;;;13.90;99.90;;;;;;4987126;28;20475;-58
2022/09/15 06:56:08;;;;;;;16.40;7.13;;;13.90;99.90;;;;;;4989427;28;20441;-58
2022/09/15 06:58:34;;;;;;;14.30;6.68;;;14.00;99.90;;;;;;4982640;28;20022;-58
2022/09/15 07:01:02;;;;;;;10.65;6.80;;;14.00;99.90;;;;;;4982209;28;20427;-58
2022/09/15 07:03:29;;;;;;;11.52;6.68;;;14.00;99.90;;;;;;4986832;28;20052;-58
2022/09/15 07:05:55;;;;;;;9.82;6.38;;;14.10;99.90;;;;;;4988432;28;20029;-59
2022/09/15 07:08:21;;;;;;;13.43;6.93;;;14.20;99.90;;;;;;4987786;28;20030;-59
2022/09/15 07:10:47;;;;;;;14.65;7.72;;;14.20;99.90;;;;;;4987536;28;20077;-57
2022/09/15 07:13:12;;;;;;;9.70;5.95;;;14.20;99.90;;;;;;4987735;28;20390;-57
2022/09/15 07:15:38;;;;;;;11.70;6.75;;;14.30;99.90;;;;;;4987209;28;20030;-59
2022/09/15 07:18:05;;;;;;;11.85;6.35;;;14.30;99.90;;;;;;4987974;28;20029;-57
2022/09/15 07:20:31;;;;;;;11.82;5.93;;;14.40;99.90;;;;;;4986973;28;20023;-58
2022/09/15 07:22:57;;;;;;;11.85;6.03;;;14.40;99.90;;;;;;4986404;28;20482;-59
2022/09/15 07:25:23;;;;;;;12.00;5.80;;;14.50;99.90;;;;;;4988536;28;20046;-59
2022/09/15 07:27:49;;;;;;;8.35;6.50;;;14.60;99.90;;;;;;4984553;28;20022;-59
2022/09/15 07:30:15;;;;;;;11.45;5.55;;;14.60;99.90;;;;;;4988897;28;20038;-59
2022/09/15 07:32:40;;;;;;;10.95;6.45;;;14.60;99.90;;;;;;4984768;28;20038;-60
2022/09/15 07:35:06;;;;;;;8.27;5.75;;;14.50;99.90;;;;;;4985753;28;20015;-59
2022/09/15 07:37:33;;;;;;;8.45;4.90;;;14.60;99.90;;;;;;4984630;28;20048;-60
2022/09/15 07:39:59;;;;;;;19.17;5.38;;;14.60;99.90;;;;;;4988111;28;20077;-59
2022/09/15 07:42:24;;;;;;;7.70;4.75;;;14.60;99.90;;;;;;4979776;28;20046;-59
2022/09/15 07:44:51;;;;;;;6.57;4.85;;;14.60;99.90;;;;;;4984242;28;20049;-59
2022/09/15 07:47:17;;;;;;;11.18;5.82;;;14.60;99.90;;;;;;4986190;28;20019;-59
2022/09/15 07:49:44;;;;;;;9.10;5.15;;;14.70;99.90;;;;;;4983471;28;20034;-59
2022/09/15 07:52:10;;;;;;;9.68;5.80;;;14.70;99.90;;;;;;4988213;28;20033;-59
2022/09/15 07:54:36;;;;;;;6.88;4.57;;;14.80;99.90;;;;;;4985811;28;20026;-59
2022/09/15 07:57:05;;;;;;;9.80;5.78;;;14.90;99.90;;;;;;4988390;28;20035;-59
2022/09/15 07:59:30;;;;;;;7.72;5.07;;;15.10;99.90;;;;;;4987078;28;20172;-59
2022/09/15 08:01:56;;;;;;;7.45;4.63;;;15.10;99.90;;;;;;4988858;28;20545;-58
2022/09/15 08:04:22;;;;;;;9.70;5.22;;;15.30;99.90;;;;;;4986161;28;20060;-57
2022/09/15 08:06:47;;;;;;;9.25;5.00;;;15.30;99.90;;;;;;4984053;28;20039;-58
2022/09/15 08:09:16;;;;;;;10.65;4.95;;;15.40;99.90;;;;;;4988342;28;20390;-58
2022/09/15 08:11:42;;;;;;;6.50;4.53;;;15.30;99.90;;;;;;4989778;28;20517;-58
2022/09/15 08:14:08;;;;;;;12.05;5.05;;;15.30;99.90;;;;;;4993253;28;20022;-58
2022/09/15 08:16:34;;;;;;;11.30;5.88;;;15.20;99.90;;;;;;4988984;28;20126;-58
2022/09/15 08:19:00;;;;;;;12.23;6.55;;;15.30;99.90;;;;;;4991963;28;20034;-58
2022/09/15 08:21:27;;;;;;;10.43;5.30;;;15.30;99.90;;;;;;4992243;28;20077;-59
2022/09/15 08:23:55;;;;;;;11.43;4.70;;;15.30;99.90;;;;;;4993109;28;20056;-59
2022/09/15 08:26:22;;;;;;;9.40;5.13;;;15.40;99.90;;;;;;4990584;28;20489;-60
2022/09/15 08:28:48;;;;;;;11.18;4.65;;;15.30;99.90;;;;;;4989522;28;20061;-59
2022/09/15 08:31:15;;;;;;;9.68;4.40;;;15.30;99.90;;;;;;4992639;28;20513;-59
2022/09/15 08:33:41;;;;;;;8.30;4.60;;;15.50;99.90;;;;;;4988642;28;20026;-58
2022/09/15 08:36:11;;;;;;;6.57;3.80;;;15.60;99.90;;;;;;4993214;28;20027;-58
2022/09/15 08:38:39;;;;;;;10.95;4.50;;;15.70;99.90;;;;;;4990036;28;20033;-58
2022/09/15 08:41:12;;;;;;;8.30;4.47;;;15.90;99.90;;;;;;4992197;28;20065;-58
2022/09/15 08:43:46;;;;;;;11.88;5.35;;;16.10;99.90;;;;;;4990163;28;20042;-59
2022/09/15 08:46:18;;;;;;;8.38;4.50;;;16.10;99.90;;;;;;4990971;28;20113;-59
2022/09/15 08:48:54;;;;;;;;;;;16.20;99.90;;;;;;4986726;28;20044;-59
2022/09/15 08:51:29;;;;;;;7.30;4.07;;;16.40;99.90;;;;;;4992102;28;20012;-58
2022/09/15 08:54:10;;;;;;;5.30;3.75;;;16.40;99.90;;;;;;4991946;28;20117;-57
2022/09/15 08:56:37;;;;;;;8.68;4.07;;;16.40;99.90;;;;;;4989207;28;20038;-58
2022/09/15 08:59:03;;;;;;;4.72;3.50;;;16.30;99.90;;;;;;4989874;28;20459;-58
2022/09/15 09:02:14;;;;;;;11.15;5.35;;;16.50;99.90;;;;;;4990080;28;20081;-58
2022/09/15 09:05:17;;;;;;;5.35;3.90;;;16.60;99.90;;;;;;4978809;28;20133;-57
2022/09/15 09:07:48;;;;;;;6.95;4.20;;;16.80;99.90;;;;;;4990373;28;20054;-58
2022/09/15 09:10:35;;;;;;;8.43;4.75;;;17.00;99.90;;;;;;4991214;28;20034;-58
2022/09/15 09:13:04;;;;;;;8.70;4.18;;;17.10;99.90;;;;;;4991783;28;20033;-58
2022/09/15 09:15:29;;;;;;;7.55;3.65;;;17.30;99.90;;;;;;4989855;28;20629;-59
2022/09/15 09:18:06;;;;;;;6.13;3.67;;;17.50;99.90;;;;;;4989074;28;20113;-59
2022/09/15 09:20:32;;;;;;;5.35;3.28;;;17.70;99.90;;;;;;4990248;28;20368;-58
2022/09/15 09:23:02;;;;;;;9.48;3.47;;;17.50;99.90;;;;;;4980928;28;20026;-58
2022/09/15 09:25:28;;;;;;;5.00;2.88;;;17.30;99.90;;;;;;4989183;28;20022;-59
2022/09/15 09:27:57;;;;;;;7.82;3.30;;;17.30;99.90;;;;;;4991576;28;20022;-59
2022/09/15 09:30:24;;;;;;;7.05;2.60;;;17.30;99.90;;;;;;4991732;28;20121;-59
2022/09/15 09:33:09;;;;;;;7.38;2.55;;;17.40;99.90;;;;;;4990030;28;20034;-59
2022/09/15 09:35:45;;;;;;;7.00;2.38;;;17.60;99.90;;;;;;4989239;28;20031;-59
2022/09/15 09:38:14;;;;;;;8.27;2.80;;;17.70;99.90;;;;;;4991541;28;20069;-59
2022/09/15 09:40:41;;;;;;;9.30;2.15;;;17.70;99.90;;;;;;4988854;28;20398;-58
2022/09/15 09:43:08;;;;;;;7.88;2.15;;;17.70;99.90;;;;;;4991044;28;20045;-58
2022/09/15 09:45:34;;;;;;;9.60;2.10;;;17.50;99.90;;;;;;4988969;28;20113;-58
2022/09/15 09:48:14;;;;;;;8.40;2.20;;;17.60;99.90;;;;;;4991549;28;20118;-58
2022/09/15 09:50:44;;;;;;;5.07;1.83;;;17.50;99.90;;;;;;4987215;28;20467;-59
2022/09/15 09:53:19;;;;;;;5.30;1.80;;;17.60;99.90;;;;;;4991193;28;20113;-59
2022/09/15 09:55:45;;;;;;;13.13;2.70;;;17.60;99.90;;;;;;4988261;28;20053;-61
2022/09/15 09:58:19;;;;;;;3.53;2.47;;;17.70;99.90;;;;;;4989697;28;20029;-59
2022/09/15 10:00:46;;;;;;;8.68;2.28;;;17.70;99.90;;;;;;4985988;28;20042;-59
2022/09/15 10:03:18;;;;;;;5.88;2.10;;;17.90;99.90;;;;;;4991195;28;20026;-59
2022/09/15 10:05:58;;;;;;;4.07;1.70;;;17.90;99.90;;;;;;4988903;28;20250;-58
2022/09/15 10:08:24;;;;;;;4.80;1.40;;;17.90;99.90;;;;;;4989383;28;20018;-58
2022/09/15 10:10:57;;;;;;;8.13;1.73;;;17.90;99.90;;;;;;4988075;28;20030;-59
2022/09/15 10:13:23;;;;;;;5.55;1.58;;;18.00;99.90;;;;;;4990964;28;20022;-59
2022/09/15 10:15:58;;;;;;;7.93;2.13;;;18.10;99.90;;;;;;4989198;28;20130;-59
2022/09/15 10:18:33;;;;;;;4.65;2.00;;;18.00;99.90;;;;;;4990798;28;20040;-59
2022/09/15 10:21:01;;;;;;;13.15;2.40;;;18.10;99.90;;;;;;4989867;28;20034;-57
2022/09/15 10:23:30;;;;;;;2.92;1.65;;;18.20;99.90;;;;;;4988291;28;20049;-58
2022/09/15 10:26:30;;;;;;;5.88;2.05;;;18.20;99.90;;;;;;4988663;28;20026;-58
2022/09/15 10:29:15;;;;;;;4.75;1.70;;;18.10;99.90;;;;;;4981257;28;20086;-59
2022/09/15 10:31:43;;;;;;;4.80;1.73;;;18.10;99.90;;;;;;4986755;28;20128;-59
2022/09/15 10:34:29;;;;;;;4.90;2.33;;;18.00;99.90;;;;;;4989648;28;20031;-59
2022/09/15 10:37:09;;;;;;;9.18;2.20;;;18.00;99.90;;;;;;4977160;28;20030;-58
2022/09/15 10:39:47;;;;;;;6.32;2.00;;;18.00;99.90;;;;;;4987903;28;20026;-59
2022/09/15 10:42:32;;;;;;;5.55;2.47;;;17.90;99.90;;;;;;4990032;28;20097;-59
2022/09/15 10:45:02;;;;;;;6.82;2.53;;;17.80;99.90;;;;;;4982232;28;20112;-59
2022/09/15 10:47:52;;;;;;;7.22;2.00;;;17.90;99.90;;;;;;4984173;28;20386;-59
2022/09/15 10:50:33;;;;;;;3.83;1.60;;;17.90;99.90;;;;;;4989690;28;20049;-59
2022/09/15 10:53:13;;;;;;;5.78;2.60;;;17.90;99.90;;;;;;4998416;28;20026;-59
2022/09/15 10:56:21;;;;;;;6.22;2.30;;;17.90;99.90;;;;;;4988274;28;20038;-59
2022/09/15 10:59:07;;;;;;;5.10;2.05;;;18.00;99.90;;;;;;4980807;28;20121;-58
2022/09/15 11:01:53;;;;;;;7.95;2.35;;;18.10;99.90;;;;;;4987630;28;20033;-60
2022/09/15 11:04:32;;;;;;;7.85;2.22;;;18.20;99.90;;;;;;4989853;28;20486;-58
2022/09/15 11:07:16;;;;;;;8.30;2.45;;;18.40;99.90;;;;;;4982786;28;20378;-58
2022/09/15 11:10:09;;;;;;;9.85;1.95;;;18.10;99.90;;;;;;4983747;28;20103;-58
2022/09/15 11:13:05;;;;;;;10.38;2.17;;;18.20;99.90;;;;;;4986299;28;20046;-58
2022/09/15 11:15:36;;;;;;;5.85;1.70;;;18.20;99.90;;;;;;4980975;28;20448;-58
2022/09/15 11:18:21;;;;;;;9.50;1.88;;;18.10;99.90;;;;;;4987721;28;20026;-59
2022/09/15 11:20:56;;;;;;;6.20;1.60;;;18.20;99.90;;;;;;4981669;28;20507;-58
2022/09/15 11:23:26;;;;;;;9.88;1.80;;;18.20;99.90;;;;;;4985472;28;20027;-59
2022/09/15 11:25:58;;;;;;;6.95;1.90;;;17.90;99.90;;;;;;4982126;28;20474;-59
2022/09/15 11:28:32;;;;;;;6.88;1.67;;;18.40;99.90;;;;;;4989236;28;20413;-59
2022/09/15 11:31:20;;;;;;;6.80;2.03;;;18.50;99.90;;;;;;4989676;28;20037;-59
2022/09/15 11:33:46;;;;;;;6.22;1.48;;;18.40;99.90;;;;;;4986124;28;20072;-59
2022/09/15 11:36:17;;;;;;;11.73;2.13;;;18.80;99.90;;;;;;4988766;28;20022;-59
2022/09/15 11:39:10;;;;;;;8.75;1.63;;;19.10;99.90;;;;;;4978804;28;20026;-59
2022/09/15 11:41:48;;;;;;;5.47;1.85;;;19.30;99.90;;;;;;4985592;28;20030;-58
2022/09/15 11:44:36;;;;;;;9.55;1.70;;;19.50;99.90;;;;;;4988940;28;20625;-58
2022/09/15 11:47:09;;;;;;;3.42;1.30;;;19.60;99.90;;;;;;4992940;28;20158;-58
2022/09/15 11:49:55;;;;;;;4.03;1.40;;;20.00;99.90;;;;;;4991769;28;20026;-58
2022/09/15 11:52:53;;;;;;;4.43;1.20;;;20.30;99.90;;;;;;4993242;28;20085;-58
2022/09/15 11:55:36;;;;;;;7.63;1.90;;;20.80;99.90;;;;;;4993457;28;20030;-58
2022/09/15 11:58:31;;;;;;;4.10;1.02;;;21.40;99.90;;;;;;4987855;28;20062;-58
2022/09/15 12:01:07;;;;;;;2.47;1.45;;;21.60;99.90;;;;;;4992305;28;20026;-59
2022/09/15 12:03:56;;;;;;;3.88;1.30;;;21.50;99.90;;;;;;4989974;28;20370;-59
2022/09/15 12:07:01;;;;;;;5.97;1.90;;;21.10;99.90;;;;;;4988765;28;20053;-59
2022/09/15 12:09:28;;;;;;;7.35;2.10;;;20.90;99.90;;;;;;4965774;28;20026;-59
2022/09/15 12:12:00;;;;;;;7.85;2.13;;;20.50;99.90;;;;;;4969029;28;20113;-58
2022/09/15 12:14:31;;;;;;;5.32;1.88;;;20.30;99.90;;;;;;4958011;28;20074;-58
2022/09/15 12:16:58;;;;;;;6.33;1.90;;;20.10;99.90;;;;;;4967581;28;20122;-59
2022/09/15 12:19:32;;;;;;;4.88;1.58;;;20.40;99.90;;;;;;4965978;28;20420;-58
2022/09/15 12:22:18;;;;;;;4.75;1.80;;;20.40;99.90;;;;;;4968362;28;20137;-58
2022/09/15 12:24:54;;;;;;;4.50;1.83;;;20.30;99.90;;;;;;4961377;28;20058;-58
2022/09/15 12:27:20;;;;;;;5.18;1.30;;;20.20;99.90;;;;;;4970368;28;20142;-58
2022/09/15 12:29:54;;;;;;;4.07;1.70;;;20.30;99.90;;;;;;4960292;28;20552;-58
2022/09/15 12:32:27;;;;;;;5.60;1.85;;;20.10;99.90;;;;;;4963983;28;20043;-58
2022/09/15 12:35:07;;;;;;;7.10;1.90;;;20.30;99.90;;;;;;4967042;28;20209;-58
2022/09/15 12:37:44;;;;;;;4.80;1.83;;;20.40;99.90;;;;;;4952312;28;20087;-58
2022/09/15 12:40:37;;;;;;;3.47;1.58;;;20.40;99.90;;;;;;4971939;28;20463;-58
2022/09/15 12:43:19;;;;;;;6.03;2.03;;;20.20;99.90;;;;;;4986409;28;20049;-58
2022/09/15 12:45:58;;;;;;;4.00;1.70;;;20.10;99.90;;;;;;4990051;28;20560;-59
2022/09/15 12:48:34;;;;;;;4.53;1.50;;;20.10;99.90;;;;;;4984320;28;20031;-59
2022/09/15 12:51:08;;;;;;;4.78;1.40;;;20.10;99.90;;;;;;4991572;28;20105;-58
2022/09/15 12:53:44;;;;;;;3.03;1.20;;;20.30;99.90;;;;;;4991114;28;20034;-58
2022/09/15 12:56:28;;;;;;;3.30;1.52;;;20.40;99.90;;;;;;4985834;28;20466;-58
2022/09/15 12:58:54;;;;;;;8.63;1.73;;;20.50;99.90;;;;;;4992292;28;20030;-58
2022/09/15 13:01:23;;;;;;;5.45;2.25;;;20.20;99.90;;;;;;4991490;28;20105;-58
2022/09/15 13:03:49;;;;;;;6.60;1.75;;;20.30;99.90;;;;;;4990366;28;20034;-59
2022/09/15 13:06:26;;;;;;;4.13;1.10;;;20.40;99.90;;;;;;4992206;28;20109;-59